sensor_id;sensor_type;location;lat;lon;timestamp;pressure;altitude;pressure_sealevel;temperature;humidity
57574;BME280;68988;49.000;21.242;2023-04-25T00:01:17;97415.66;;;22.44;39.13
57574;BME280;68988;49.000;21.242;2023-04-25T00:03:42;97413.81;;;22.45;38.94
57574;BME280;68988;49.000;21.242;2023-04-25T00:06:08;97412.69;;;22.46;39.13
57574;BME280;68988;49.000;21.242;2023-04-25T00:08:33;97410.03;;;22.46;39.05
57574;BME280;68988;49.000;21.242;2023-04-25T00:10:59;97412.19;;;22.44;39.00
57574;BME280;68988;49.000;21.242;2023-04-25T00:13:25;97408.22;;;22.41;38.96
57574;BME280;68988;49.000;21.242;2023-04-25T00:15:51;97403.69;;;22.42;39.10
57574;BME280;68988;49.000;21.242;2023-04-25T00:18:18;97400.22;;;22.41;39.15
57574;BME280;68988;49.000;21.242;2023-04-25T00:20:44;97398.84;;;22.44;38.93
57574;BME280;68988;49.000;21.242;2023-04-25T00:23:09;97397.78;;;22.45;39.17
57574;BME280;68988;49.000;21.242;2023-04-25T00:25:35;97393.00;;;22.42;39.01
57574;BME280;68988;49.000;21.242;2023-04-25T00:28:00;97391.41;;;22.41;38.99
57574;BME280;68988;49.000;21.242;2023-04-25T00:30:26;97387.94;;;22.40;39.07
57574;BME280;68988;49.000;21.242;2023-04-25T00:32:51;97382.91;;;22.39;39.16
57574;BME280;68988;49.000;21.242;2023-04-25T00:35:17;97385.28;;;22.40;39.02
57574;BME280;68988;49.000;21.242;2023-04-25T00:37:42;97383.69;;;22.39;39.21
57574;BME280;68988;49.000;21.242;2023-04-25T00:40:08;97384.47;;;22.40;39.18
57574;BME280;68988;49.000;21.242;2023-04-25T00:42:35;97375.38;;;22.41;39.09
57574;BME280;68988;49.000;21.242;2023-04-25T00:45:01;97361.88;;;22.32;39.32
57574;BME280;68988;49.000;21.242;2023-04-25T00:47:27;97375.97;;;22.38;39.25
57574;BME280;68988;49.000;21.242;2023-04-25T00:49:53;97372.22;;;22.39;39.32
57574;BME280;68988;49.000;21.242;2023-04-25T00:52:19;97375.66;;;22.39;39.12
57574;BME280;68988;49.000;21.242;2023-04-25T00:54:45;97375.66;;;22.39;39.22
57574;BME280;68988;49.000;21.242;2023-04-25T00:57:11;97370.31;;;22.39;39.29
57574;BME280;68988;49.000;21.242;2023-04-25T00:59:37;97377.56;;;22.39;39.04
57574;BME280;68988;49.000;21.242;2023-04-25T01:02:04;97373.00;;;22.39;39.19
57574;BME280;68988;49.000;21.242;2023-04-25T01:04:29;97368.22;;;22.36;39.31
57574;BME280;68988;49.000;21.242;2023-04-25T01:06:55;97358.34;;;22.37;39.44
57574;BME280;68988;49.000;21.242;2023-04-25T01:09:22;97371.69;;;22.37;39.06
57574;BME280;68988;49.000;21.242;2023-04-25T01:11:48;97367.44;;;22.35;39.13
57574;BME280;68988;49.000;21.242;2023-04-25T01:14:14;97367.16;;;22.37;39.36
57574;BME280;68988;49.000;21.242;2023-04-25T01:16:39;97353.84;;;22.32;39.29
57574;BME280;68988;49.000;21.242;2023-04-25T01:19:09;97360.72;;;22.38;39.25
57574;BME280;68988;49.000;21.242;2023-04-25T01:21:36;97358.56;;;22.40;39.23
57574;BME280;68988;49.000;21.242;2023-04-25T01:24:02;97361.81;;;22.37;39.14
57574;BME280;68988;49.000;21.242;2023-04-25T01:26:27;97355.94;;;22.35;39.36
57574;BME280;68988;49.000;21.242;2023-04-25T01:28:53;97355.94;;;22.35;39.37
57574;BME280;68988;49.000;21.242;2023-04-25T01:31:19;97357.25;;;22.38;39.12
57574;BME280;68988;49.000;21.242;2023-04-25T01:33:45;97350.91;;;22.33;39.34
57574;BME280;68988;49.000;21.242;2023-04-25T01:36:10;97349.81;;;22.34;39.17
57574;BME280;68988;49.000;21.242;2023-04-25T01:38:36;97349.63;;;22.31;39.29
57574;BME280;68988;49.000;21.242;2023-04-25T01:41:01;97354.66;;;22.32;39.34
57574;BME280;68988;49.000;21.242;2023-04-25T01:43:27;97345.06;;;22.31;39.20
57574;BME280;68988;49.000;21.242;2023-04-25T01:45:53;97346.66;;;22.32;39.14
57574;BME280;68988;49.000;21.242;2023-04-25T01:48:18;97350.41;;;22.31;39.23
57574;BME280;68988;49.000;21.242;2023-04-25T01:50:44;97343.47;;;22.30;39.39
57574;BME280;68988;49.000;21.242;2023-04-25T01:53:12;97340.50;;;22.32;39.19
57574;BME280;68988;49.000;21.242;2023-04-25T01:55:38;97340.22;;;22.33;39.26
57574;BME280;68988;49.000;21.242;2023-04-25T01:58:04;97339.72;;;22.31;39.34
57574;BME280;68988;49.000;21.242;2023-04-25T02:00:34;97340.50;;;22.32;39.39
57574;BME280;68988;49.000;21.242;2023-04-25T02:03:00;97336.25;;;22.31;39.32
57574;BME280;68988;49.000;21.242;2023-04-25T02:05:25;97335.44;;;22.30;39.30
57574;BME280;68988;49.000;21.242;2023-04-25T02:07:51;97329.56;;;22.28;39.53
57574;BME280;68988;49.000;21.242;2023-04-25T02:10:16;97336.53;;;22.29;39.40
57574;BME280;68988;49.000;21.242;2023-04-25T02:12:41;97328.78;;;22.28;39.50
57574;BME280;68988;49.000;21.242;2023-04-25T02:15:07;97337.31;;;22.30;39.55
57574;BME280;68988;49.000;21.242;2023-04-25T02:17:33;97338.13;;;22.30;39.54
57574;BME280;68988;49.000;21.242;2023-04-25T02:19:58;97330.38;;;22.29;39.44
57574;BME280;68988;49.000;21.242;2023-04-25T02:22:24;97329.56;;;22.28;39.37
57574;BME280;68988;49.000;21.242;2023-04-25T02:24:49;97328.50;;;22.29;39.44
57574;BME280;68988;49.000;21.242;2023-04-25T02:27:15;97322.63;;;22.27;39.36
57574;BME280;68988;49.000;21.242;2023-04-25T02:29:40;97327.69;;;22.29;39.56
57574;BME280;68988;49.000;21.242;2023-04-25T02:32:06;97327.44;;;22.30;39.42
57574;BME280;68988;49.000;21.242;2023-04-25T02:34:31;97327.47;;;22.25;39.38
57574;BME280;68988;49.000;21.242;2023-04-25T02:36:57;97327.97;;;22.27;39.42
57574;BME280;68988;49.000;21.242;2023-04-25T02:39:22;97321.56;;;22.28;39.44
57574;BME280;68988;49.000;21.242;2023-04-25T02:41:50;97321.84;;;22.27;39.31
57574;BME280;68988;49.000;21.242;2023-04-25T02:44:15;97326.13;;;22.28;39.60
57574;BME280;68988;49.000;21.242;2023-04-25T02:46:41;97326.41;;;22.26;39.48
57574;BME280;68988;49.000;21.242;2023-04-25T02:49:06;97324.81;;;22.25;39.51
57574;BME280;68988;49.000;21.242;2023-04-25T02:51:31;97331.75;;;22.26;39.30
57574;BME280;68988;49.000;21.242;2023-04-25T02:53:57;97323.75;;;22.26;39.24
57574;BME280;68988;49.000;21.242;2023-04-25T02:56:23;97329.56;;;22.28;39.55
57574;BME280;68988;49.000;21.242;2023-04-25T02:58:48;97321.66;;;22.23;39.33
57574;BME280;68988;49.000;21.242;2023-04-25T03:01:13;97316.31;;;22.23;39.36
57574;BME280;68988;49.000;21.242;2023-04-25T03:03:39;97327.00;;;22.23;39.50
57574;BME280;68988;49.000;21.242;2023-04-25T03:06:04;97324.31;;;22.23;39.49
57574;BME280;68988;49.000;21.242;2023-04-25T03:08:30;97319.25;;;22.22;39.47
57574;BME280;68988;49.000;21.242;2023-04-25T03:10:58;97320.03;;;22.22;39.43
57574;BME280;68988;49.000;21.242;2023-04-25T03:13:23;97314.72;;;22.22;39.37
57574;BME280;68988;49.000;21.242;2023-04-25T03:15:49;97317.38;;;22.22;39.65
57574;BME280;68988;49.000;21.242;2023-04-25T03:18:14;97315.19;;;22.24;39.46
57574;BME280;68988;49.000;21.242;2023-04-25T03:20:40;97312.53;;;22.24;39.62
57574;BME280;68988;49.000;21.242;2023-04-25T03:23:07;97320.84;;;22.23;39.57
57574;BME280;68988;49.000;21.242;2023-04-25T03:25:32;97314.41;;;22.24;39.38
57574;BME280;68988;49.000;21.242;2023-04-25T03:27:57;97315.50;;;22.23;39.58
57574;BME280;68988;49.000;21.242;2023-04-25T03:30:23;97313.09;;;22.21;39.51
57574;BME280;68988;49.000;21.242;2023-04-25T03:32:48;97317.88;;;22.24;39.58
57574;BME280;68988;49.000;21.242;2023-04-25T03:35:14;97312.31;;;22.21;39.44
57574;BME280;68988;49.000;21.242;2023-04-25T03:37:39;97324.59;;;22.22;39.42
57574;BME280;68988;49.000;21.242;2023-04-25T03:40:06;97309.94;;;22.19;39.55
57574;BME280;68988;49.000;21.242;2023-04-25T03:42:31;97321.41;;;22.20;39.72
57574;BME280;68988;49.000;21.242;2023-04-25T03:44:57;97315.28;;;22.19;39.68
57574;BME280;68988;49.000;21.242;2023-04-25T03:47:22;97325.97;;;22.19;39.61
57574;BME280;68988;49.000;21.242;2023-04-25T03:49:47;97316.34;;;22.18;39.40
57574;BME280;68988;49.000;21.242;2023-04-25T03:52:14;97324.06;;;22.20;39.50
57574;BME280;68988;49.000;21.242;2023-04-25T03:54:40;97318.25;;;22.17;39.72
57574;BME280;68988;49.000;21.242;2023-04-25T03:57:05;97314.22;;;22.20;39.47
57574;BME280;68988;49.000;21.242;2023-04-25T03:59:30;97316.34;;;22.18;39.65
57574;BME280;68988;49.000;21.242;2023-04-25T04:01:56;97313.41;;;22.20;39.77
57574;BME280;68988;49.000;21.242;2023-04-25T04:04:22;97318.97;;;22.23;39.55
57574;BME280;68988;49.000;21.242;2023-04-25T04:06:47;97313.41;;;22.20;39.70
57574;BME280;68988;49.000;21.242;2023-04-25T04:09:12;97318.25;;;22.17;39.62
57574;BME280;68988;49.000;21.242;2023-04-25T04:11:38;97320.63;;;22.19;39.55
57574;BME280;68988;49.000;21.242;2023-04-25T04:14:07;97322.78;;;22.17;39.54
57574;BME280;68988;49.000;21.242;2023-04-25T04:16:33;97314.25;;;22.15;39.70
57574;BME280;68988;49.000;21.242;2023-04-25T04:18:58;97320.41;;;22.15;39.47
57574;BME280;68988;49.000;21.242;2023-04-25T04:21:24;97330.22;;;22.20;39.50
57574;BME280;68988;49.000;21.242;2023-04-25T04:23:49;97323.00;;;22.21;39.47
57574;BME280;68988;49.000;21.242;2023-04-25T04:26:15;97326.16;;;22.23;39.51
57574;BME280;68988;49.000;21.242;2023-04-25T04:28:43;97327.97;;;22.27;39.57
57574;BME280;68988;49.000;21.242;2023-04-25T04:31:09;97324.75;;;22.30;39.29
57574;BME280;68988;49.000;21.242;2023-04-25T04:33:35;97332.50;;;22.32;39.20
57574;BME280;68988;49.000;21.242;2023-04-25T04:36:02;97331.41;;;22.33;39.22
57574;BME280;68988;49.000;21.242;2023-04-25T04:38:28;97333.00;;;22.34;39.27
57574;BME280;68988;49.000;21.242;2023-04-25T04:40:54;97334.59;;;22.35;39.33
57574;BME280;68988;49.000;21.242;2023-04-25T04:43:19;97338.06;;;22.35;39.46
57574;BME280;68988;49.000;21.242;2023-04-25T04:45:44;97336.97;;;22.37;39.33
57574;BME280;68988;49.000;21.242;2023-04-25T04:48:10;97338.56;;;22.38;39.25
57574;BME280;68988;49.000;21.242;2023-04-25T04:50:37;97344.69;;;22.38;39.42
57574;BME280;68988;49.000;21.242;2023-04-25T04:53:03;97324.44;;;22.37;39.37
57574;BME280;68988;49.000;21.242;2023-04-25T04:55:29;97339.31;;;22.43;39.41
57574;BME280;68988;49.000;21.242;2023-04-25T04:57:54;97339.00;;;22.45;39.52
57574;BME280;68988;49.000;21.242;2023-04-25T05:00:20;97337.13;;;22.45;39.35
57574;BME280;68988;49.000;21.242;2023-04-25T05:02:47;97340.59;;;22.46;39.63
57574;BME280;68988;49.000;21.242;2023-04-25T05:05:12;97336.25;;;22.50;39.42
57574;BME280;68988;49.000;21.242;2023-04-25T05:07:37;97343.19;;;22.51;39.20
57574;BME280;68988;49.000;21.242;2023-04-25T05:10:03;97337.91;;;22.46;39.61
57574;BME280;68988;49.000;21.242;2023-04-25T05:12:28;97344.19;;;22.55;39.60
57574;BME280;68988;49.000;21.242;2023-04-25T05:14:55;97347.38;;;22.57;39.40
57574;BME280;68988;49.000;21.242;2023-04-25T05:17:20;97345.78;;;22.56;39.37
57574;BME280;68988;49.000;21.242;2023-04-25T05:19:46;97345.50;;;22.58;39.48
57574;BME280;68988;49.000;21.242;2023-04-25T05:22:11;97345.22;;;22.59;39.65
57574;BME280;68988;49.000;21.242;2023-04-25T05:24:37;97347.31;;;22.62;39.46
57574;BME280;68988;49.000;21.242;2023-04-25T05:27:02;97339.28;;;22.62;39.54
57574;BME280;68988;49.000;21.242;2023-04-25T05:29:27;97344.13;;;22.60;39.68
57574;BME280;68988;49.000;21.242;2023-04-25T05:31:53;97346.22;;;22.63;39.58
57574;BME280;68988;49.000;21.242;2023-04-25T05:34:18;97346.72;;;22.65;39.82
57574;BME280;68988;49.000;21.242;2023-04-25T05:36:44;97354.16;;;22.68;39.66
57574;BME280;68988;49.000;21.242;2023-04-25T05:39:09;97348.63;;;22.65;39.79
57574;BME280;68988;49.000;21.242;2023-04-25T05:41:35;97350.75;;;22.63;39.82
57574;BME280;68988;49.000;21.242;2023-04-25T05:44:00;97351.56;;;22.63;39.85
57574;BME280;68988;49.000;21.242;2023-04-25T05:46:26;97363.84;;;22.64;39.65
57574;BME280;68988;49.000;21.242;2023-04-25T05:48:51;97364.94;;;22.63;39.89
57574;BME280;68988;49.000;21.242;2023-04-25T05:51:17;97362.25;;;22.63;39.91
57574;BME280;68988;49.000;21.242;2023-04-25T05:53:43;97365.72;;;22.64;39.78
57574;BME280;68988;49.000;21.242;2023-04-25T05:56:09;97366.00;;;22.62;39.79
57574;BME280;68988;49.000;21.242;2023-04-25T05:58:34;97365.44;;;22.65;40.07
57574;BME280;68988;49.000;21.242;2023-04-25T06:00:59;97366.75;;;22.68;40.03
57574;BME280;68988;49.000;21.242;2023-04-25T06:03:25;97364.34;;;22.66;39.86
57574;BME280;68988;49.000;21.242;2023-04-25T06:05:51;97366.44;;;22.69;39.92
57574;BME280;68988;49.000;21.242;2023-04-25T06:08:16;97360.53;;;22.73;40.05
57574;BME280;68988;49.000;21.242;2023-04-25T06:10:42;97358.66;;;22.73;40.10
57574;BME280;68988;49.000;21.242;2023-04-25T06:13:07;97354.59;;;22.76;40.04
57574;BME280;68988;49.000;21.242;2023-04-25T06:15:32;97355.69;;;22.75;40.25
57574;BME280;68988;49.000;21.242;2023-04-25T06:17:58;97361.53;;;22.77;40.02
57574;BME280;68988;49.000;21.242;2023-04-25T06:20:24;97362.63;;;22.76;40.30
57574;BME280;68988;49.000;21.242;2023-04-25T06:22:50;97365.34;;;22.70;40.66
57574;BME280;68988;49.000;21.242;2023-04-25T06:25:17;97369.13;;;22.69;40.60
57574;BME280;68988;49.000;21.242;2023-04-25T06:27:42;97361.22;;;22.78;40.20
57574;BME280;68988;49.000;21.242;2023-04-25T06:30:08;97362.81;;;22.79;40.22
57574;BME280;68988;49.000;21.242;2023-04-25T06:32:33;97364.47;;;22.75;40.40
57574;BME280;68988;49.000;21.242;2023-04-25T06:34:59;97373.59;;;22.74;40.50
57574;BME280;68988;49.000;21.242;2023-04-25T06:37:25;97375.25;;;22.70;40.80
57574;BME280;68988;49.000;21.242;2023-04-25T06:39:50;97375.47;;;22.74;40.57
57574;BME280;68988;49.000;21.242;2023-04-25T06:42:16;97375.41;;;22.79;40.41
57574;BME280;68988;49.000;21.242;2023-04-25T06:44:41;97383.34;;;22.84;40.43
57574;BME280;68988;49.000;21.242;2023-04-25T06:47:06;97389.19;;;22.86;40.49
57574;BME280;68988;49.000;21.242;2023-04-25T06:49:32;97385.44;;;22.87;40.69
57574;BME280;68988;49.000;21.242;2023-04-25T06:51:57;97385.44;;;22.87;40.97
57574;BME280;68988;49.000;21.242;2023-04-25T06:54:23;97378.94;;;22.93;41.07
57574;BME280;68988;49.000;21.242;2023-04-25T06:56:50;97378.34;;;22.96;41.02
57574;BME280;68988;49.000;21.242;2023-04-25T06:59:15;97387.16;;;22.97;40.98
57574;BME280;68988;49.000;21.242;2023-04-25T07:01:40;97384.19;;;22.98;41.09
57574;BME280;68988;49.000;21.242;2023-04-25T07:04:06;97384.19;;;22.98;41.03
57574;BME280;68988;49.000;21.242;2023-04-25T07:06:32;97389.47;;;23.03;41.14
57574;BME280;68988;49.000;21.242;2023-04-25T07:08:57;97382.91;;;22.96;41.49
57574;BME280;68988;49.000;21.242;2023-04-25T07:11:22;97386.94;;;22.93;41.64
57574;BME280;68988;49.000;21.242;2023-04-25T07:13:48;97385.78;;;22.99;41.60
57574;BME280;68988;49.000;21.242;2023-04-25T07:16:13;97385.69;;;23.04;41.82
57574;BME280;68988;49.000;21.242;2023-04-25T07:18:38;97393.44;;;23.06;41.75
57574;BME280;68988;49.000;21.242;2023-04-25T07:21:04;97391.03;;;23.04;41.82
57574;BME280;68988;49.000;21.242;2023-04-25T07:23:30;97396.38;;;23.10;42.19
57574;BME280;68988;49.000;21.242;2023-04-25T07:25:55;97388.59;;;23.08;42.10
57574;BME280;68988;49.000;21.242;2023-04-25T07:28:21;97391.81;;;23.10;42.41
57574;BME280;68988;49.000;21.242;2023-04-25T07:30:46;97385.38;;;23.11;42.28
57574;BME280;68988;49.000;21.242;2023-04-25T07:33:12;97385.38;;;23.11;42.53
57574;BME280;68988;49.000;21.242;2023-04-25T07:35:37;97386.66;;;23.14;42.48
57574;BME280;68988;49.000;21.242;2023-04-25T07:38:02;97389.63;;;23.12;42.46
57574;BME280;68988;49.000;21.242;2023-04-25T07:40:28;97392.00;;;23.14;42.50
57574;BME280;68988;49.000;21.242;2023-04-25T07:42:54;97397.34;;;23.14;42.50
57574;BME280;68988;49.000;21.242;2023-04-25T07:45:19;97397.34;;;23.14;42.43
57574;BME280;68988;49.000;21.242;2023-04-25T07:47:45;97393.31;;;23.16;42.40
57574;BME280;68988;49.000;21.242;2023-04-25T07:50:10;97399.16;;;23.18;42.41
57574;BME280;68988;49.000;21.242;2023-04-25T07:52:36;97403.22;;;23.16;42.53
57574;BME280;68988;49.000;21.242;2023-04-25T07:55:01;97395.97;;;23.16;42.51
57574;BME280;68988;49.000;21.242;2023-04-25T07:57:27;97400.25;;;23.17;42.57
57574;BME280;68988;49.000;21.242;2023-04-25T07:59:52;97410.66;;;23.19;42.54
57574;BME280;68988;49.000;21.242;2023-04-25T08:02:17;97411.44;;;23.19;42.48
57574;BME280;68988;49.000;21.242;2023-04-25T08:04:43;97416.59;;;23.16;42.45
57574;BME280;68988;49.000;21.242;2023-04-25T08:07:08;97413.41;;;23.14;42.30
57574;BME280;68988;49.000;21.242;2023-04-25T08:09:34;97415.56;;;23.12;42.25
57574;BME280;68988;49.000;21.242;2023-04-25T08:12:02;97422.53;;;23.13;42.68
57574;BME280;68988;49.000;21.242;2023-04-25T08:14:27;97420.44;;;23.10;42.73
57574;BME280;68988;49.000;21.242;2023-04-25T08:16:54;97418.25;;;23.12;42.73
57574;BME280;68988;49.000;21.242;2023-04-25T08:19:19;97422.53;;;23.13;42.77
57574;BME280;68988;49.000;21.242;2023-04-25T08:21:44;97426.47;;;23.15;42.79
57574;BME280;68988;49.000;21.242;2023-04-25T08:24:10;97431.03;;;23.15;42.64
57574;BME280;68988;49.000;21.242;2023-04-25T08:26:36;97430.75;;;23.16;42.43
57574;BME280;68988;49.000;21.242;2023-04-25T08:29:02;97429.44;;;23.14;42.61
57574;BME280;68988;49.000;21.242;2023-04-25T08:31:27;97428.84;;;23.17;42.33
57574;BME280;68988;49.000;21.242;2023-04-25T08:33:53;97431.53;;;23.17;42.48
57574;BME280;68988;49.000;21.242;2023-04-25T08:36:18;97432.53;;;23.21;42.46
57574;BME280;68988;49.000;21.242;2023-04-25T08:38:44;97437.41;;;23.19;42.53
57574;BME280;68988;49.000;21.242;2023-04-25T08:41:11;97441.16;;;23.18;42.74
57574;BME280;68988;49.000;21.242;2023-04-25T08:43:37;97442.22;;;23.17;42.75
57574;BME280;68988;49.000;21.242;2023-04-25T08:46:02;97439.56;;;23.17;42.72
57574;BME280;68988;49.000;21.242;2023-04-25T08:48:28;97445.44;;;23.19;42.66
57574;BME280;68988;49.000;21.242;2023-04-25T08:50:57;97446.94;;;23.25;42.66
57574;BME280;68988;49.000;21.242;2023-04-25T08:53:28;97451.47;;;23.24;42.85
57574;BME280;68988;49.000;21.242;2023-04-25T08:55:56;97459.72;;;23.28;42.70
57574;BME280;68988;49.000;21.242;2023-04-25T08:58:22;97466.25;;;23.22;42.77
57574;BME280;68988;49.000;21.242;2023-04-25T09:00:49;97467.31;;;23.21;42.77
57574;BME280;68988;49.000;21.242;2023-04-25T09:03:15;97469.41;;;23.24;42.77
57574;BME280;68988;49.000;21.242;2023-04-25T09:05:41;97472.88;;;23.24;42.82
57574;BME280;68988;49.000;21.242;2023-04-25T09:08:07;97470.72;;;23.27;42.58
57574;BME280;68988;49.000;21.242;2023-04-25T09:10:33;97471.72;;;23.31;42.78
57574;BME280;68988;49.000;21.242;2023-04-25T09:13:12;97476.75;;;23.32;42.45
57574;BME280;68988;49.000;21.242;2023-04-25T09:15:48;97473.81;;;23.34;42.50
57574;BME280;68988;49.000;21.242;2023-04-25T09:18:42;97484.78;;;23.32;42.65
57574;BME280;68988;49.000;21.242;2023-04-25T09:21:11;97480.53;;;23.31;42.67
57574;BME280;68988;49.000;21.242;2023-04-25T09:23:41;97485.06;;;23.31;42.48
57574;BME280;68988;49.000;21.242;2023-04-25T09:26:07;97478.44;;;23.28;42.68
57574;BME280;68988;49.000;21.242;2023-04-25T09:28:33;97484.00;;;23.32;42.77
57574;BME280;68988;49.000;21.242;2023-04-25T09:31:00;97486.19;;;23.30;42.68
57574;BME280;68988;49.000;21.242;2023-04-25T09:33:33;97490.66;;;23.34;42.52
57574;BME280;68988;49.000;21.242;2023-04-25T09:36:08;97494.91;;;23.35;42.29
57574;BME280;68988;49.000;21.242;2023-04-25T09:38:42;97498.09;;;23.37;42.31
57574;BME280;68988;49.000;21.242;2023-04-25T09:41:09;97497.88;;;23.34;42.60
57574;BME280;68988;49.000;21.242;2023-04-25T09:43:35;97485.38;;;23.29;42.29
57574;BME280;68988;49.000;21.242;2023-04-25T09:46:01;97490.94;;;23.33;42.32
57574;BME280;68988;49.000;21.242;2023-04-25T09:48:28;97492.53;;;23.34;42.12
57574;BME280;68988;49.000;21.242;2023-04-25T09:53:28;97496.50;;;23.36;42.24
57574;BME280;68988;49.000;21.242;2023-04-25T09:55:54;97505.41;;;23.32;41.78
57574;BME280;68988;49.000;21.242;2023-04-25T09:58:22;97489.28;;;23.18;40.69
57574;BME280;68988;49.000;21.242;2023-04-25T10:00:49;97500.56;;;23.15;40.22
57574;BME280;68988;49.000;21.242;2023-04-25T10:03:15;97494.47;;;23.09;39.75
57574;BME280;68988;49.000;21.242;2023-04-25T10:05:43;97496.19;;;23.00;39.29
57574;BME280;68988;49.000;21.242;2023-04-25T10:08:09;97496.47;;;22.98;39.19
57574;BME280;68988;49.000;21.242;2023-04-25T10:10:35;97498.06;;;22.99;39.66
57574;BME280;68988;49.000;21.242;2023-04-25T10:13:04;97499.59;;;23.05;39.94
57574;BME280;68988;49.000;21.242;2023-04-25T10:15:32;97497.97;;;23.10;39.94
57574;BME280;68988;49.000;21.242;2023-04-25T10:18:00;97498.97;;;23.14;40.09
57574;BME280;68988;49.000;21.242;2023-04-25T10:20:26;97497.88;;;23.15;40.21
57574;BME280;68988;49.000;21.242;2023-04-25T10:22:54;97502.66;;;23.18;40.11
57574;BME280;68988;49.000;21.242;2023-04-25T10:25:22;97504.25;;;23.19;40.64
57574;BME280;68988;49.000;21.242;2023-04-25T10:27:51;97497.81;;;23.20;39.95
57574;BME280;68988;49.000;21.242;2023-04-25T10:30:18;97497.81;;;23.20;39.96
57574;BME280;68988;49.000;21.242;2023-04-25T10:32:44;97502.56;;;23.23;39.59
57574;BME280;68988;49.000;21.242;2023-04-25T10:35:15;97499.91;;;23.23;39.63
57574;BME280;68988;49.000;21.242;2023-04-25T10:38:04;97494.50;;;23.28;39.64
57574;BME280;68988;49.000;21.242;2023-04-25T10:40:31;97488.13;;;23.24;39.65
57574;BME280;68988;49.000;21.242;2023-04-25T10:46:15;97485.38;;;23.29;39.63
57574;BME280;68988;49.000;21.242;2023-04-25T10:48:54;97487.75;;;23.31;39.68
57574;BME280;68988;49.000;21.242;2023-04-25T10:51:27;97484.59;;;23.29;39.93
57574;BME280;68988;49.000;21.242;2023-04-25T10:53:58;97489.16;;;23.28;39.98
57574;BME280;68988;49.000;21.242;2023-04-25T10:56:42;97483.22;;;23.31;39.94
57574;BME280;68988;49.000;21.242;2023-04-25T11:01:48;97483.22;;;23.31;40.35
57574;BME280;68988;49.000;21.242;2023-04-25T11:04:31;97488.03;;;23.29;40.22
57574;BME280;68988;49.000;21.242;2023-04-25T11:07:18;97490.13;;;23.32;40.00
57574;BME280;68988;49.000;21.242;2023-04-25T11:09:49;97487.34;;;23.23;39.98
57574;BME280;68988;49.000;21.242;2023-04-25T11:12:14;97498.81;;;23.24;39.87
57574;BME280;68988;49.000;21.242;2023-04-25T11:14:41;97489.72;;;23.25;39.74
57574;BME280;68988;49.000;21.242;2023-04-25T11:17:06;97483.56;;;23.24;39.72
57574;BME280;68988;49.000;21.242;2023-04-25T11:19:32;97488.63;;;23.26;39.89
57574;BME280;68988;49.000;21.242;2023-04-25T11:21:59;97493.19;;;23.26;39.77
57574;BME280;68988;49.000;21.242;2023-04-25T11:24:33;97488.56;;;23.31;40.04
57574;BME280;68988;49.000;21.242;2023-04-25T11:27:02;97492.31;;;23.30;40.04
57574;BME280;68988;49.000;21.242;2023-04-25T11:29:29;97485.38;;;23.29;40.04
57574;BME280;68988;49.000;21.242;2023-04-25T11:31:56;97486.97;;;23.30;39.90
57574;BME280;68988;49.000;21.242;2023-04-25T11:34:25;97475.97;;;23.32;40.07
57574;BME280;68988;49.000;21.242;2023-04-25T11:36:51;97476.28;;;23.30;40.40
57574;BME280;68988;49.000;21.242;2023-04-25T11:39:19;97469.63;;;23.28;40.27
57574;BME280;68988;49.000;21.242;2023-04-25T11:41:44;97480.25;;;23.33;39.89
57574;BME280;68988;49.000;21.242;2023-04-25T11:44:10;97480.03;;;23.29;40.21
57574;BME280;68988;49.000;21.242;2023-04-25T11:46:36;97486.47;;;23.28;40.06
57574;BME280;68988;49.000;21.242;2023-04-25T11:49:02;97485.53;;;23.19;39.69
57574;BME280;68988;49.000;21.242;2023-04-25T11:51:27;97481.75;;;23.20;39.62
57574;BME280;68988;49.000;21.242;2023-04-25T11:53:53;97490.81;;;23.24;40.07
57574;BME280;68988;49.000;21.242;2023-04-25T11:56:18;97490.31;;;23.22;40.07
57574;BME280;68988;49.000;21.242;2023-04-25T11:59:02;97490.72;;;23.29;40.20
57574;BME280;68988;49.000;21.242;2023-04-25T12:01:35;97488.34;;;23.28;40.34
57574;BME280;68988;49.000;21.242;2023-04-25T12:04:18;97493.63;;;23.33;40.07
57574;BME280;68988;49.000;21.242;2023-04-25T12:06:46;97499.03;;;23.28;40.23
57574;BME280;68988;49.000;21.242;2023-04-25T12:09:14;97493.41;;;23.29;40.37
57574;BME280;68988;49.000;21.242;2023-04-25T12:11:54;97496.50;;;23.36;40.37
57574;BME280;68988;49.000;21.242;2023-04-25T12:14:22;97499.28;;;23.31;40.59
57574;BME280;68988;49.000;21.242;2023-04-25T12:16:49;97497.09;;;23.33;40.36
57574;BME280;68988;49.000;21.242;2023-04-25T12:19:17;97502.00;;;23.26;39.83
57574;BME280;68988;49.000;21.242;2023-04-25T12:21:46;97503.59;;;23.27;40.03
57574;BME280;68988;49.000;21.242;2023-04-25T12:24:15;97498.81;;;23.24;39.84
57574;BME280;68988;49.000;21.242;2023-04-25T12:29:22;97493.69;;;23.28;39.82
57574;BME280;68988;49.000;21.242;2023-04-25T12:31:49;97499.84;;;23.28;39.90
57574;BME280;68988;49.000;21.242;2023-04-25T12:34:15;97504.38;;;23.28;39.71
57574;BME280;68988;49.000;21.242;2023-04-25T12:36:41;97499.84;;;23.28;39.97
57574;BME280;68988;49.000;21.242;2023-04-25T12:39:06;97499.84;;;23.28;40.03
57574;BME280;68988;49.000;21.242;2023-04-25T12:41:33;97502.53;;;23.28;39.96
57574;BME280;68988;49.000;21.242;2023-04-25T12:43:58;97492.91;;;23.27;39.98
57574;BME280;68988;49.000;21.242;2023-04-25T12:46:24;97496.88;;;23.30;40.00
57574;BME280;68988;49.000;21.242;2023-04-25T12:48:49;97498.44;;;23.31;40.01
57574;BME280;68988;49.000;21.242;2023-04-25T12:51:15;97495.50;;;23.32;39.88
57574;BME280;68988;49.000;21.242;2023-04-25T12:53:41;97498.97;;;23.33;40.06
57574;BME280;68988;49.000;21.242;2023-04-25T12:56:09;97497.28;;;23.37;40.25
57574;BME280;68988;49.000;21.242;2023-04-25T12:58:35;97494.13;;;23.35;40.44